Stena Germanica — SKPZ — position and weather

sailwx.info

Track history (hours):
 
Tides and Currents Weather Stations Pressure Air Temp Water Temp Dewpoint Dewpoint Depression Visibility Wind Speed Wind Dir Waves Ship Positions

Stena Germanica

Last reported at 2018-May-27 19:30 UTC. Time now 2018-May-27 19:47 UTC.
Position N 56°03' E 015°35'.

Length 176 m; draft 6.4 m.

Type: Passenger vessel. MMSI: 265292000.

Date/timePositionNaut miles runAvg speedWind from/ knotsBaromVisibWave heightAir tempDewpointWater temp
2018-May-27 19:30N 56°03' E 015°35'612.3
2018-May-27 19:00N 56°09' E 015°37'1 1.1
2018-May-27 18:30N 56°10' E 015°38'0 0.0
2018-May-27 18:00N 56°10' E 015°38'0 0.0
2018-May-27 17:30N 56°10' E 015°38'4 8.1
2018-May-27 17:00N 56°06' E 015°35'714.9
2018-May-27 16:30N 56°01' E 015°43'917.1
2018-May-27 16:00N 55°55' E 015°55'917.1
2018-May-27 15:30N 55°51' E 016°08'917.1
2018-May-27 15:00N 55°46' E 016°21'816.9
2018-May-27 14:30N 55°41' E 016°33'916.6
2018-May-27 13:57N 55°36' E 016°47'716.5
2018-May-27 13:30N 55°32' E 016°58'5517.2
2018-May-27 10:16N 55°02' E 018°20'517.7
2018-May-27 10:00N 54°60' E 018°27'917.5
2018-May-27 09:30N 54°54' E 018°38'917.6
2018-May-27 09:00N 54°47' E 018°49'917.5
2018-May-27 08:30N 54°41' E 018°58'917.3
2018-May-27 08:00N 54°33' E 018°50'815.3
2018-May-27 07:29N 54°32' E 018°36'4 7.3
2018-May-27 06:59N 54°33' E 018°30'0 0.0
2018-May-27 06:28N 54°33' E 018°30'0 0.0
2018-May-27 05:58N 54°33' E 018°30'0 0.0
2018-May-27 05:28N 54°33' E 018°30'1 2.6
2018-May-27 05:00N 54°32' E 018°32'5 9.5
2018-May-27 04:30N 54°32' E 018°40'815.3
2018-May-27 04:00N 54°35' E 018°52'816.0
2018-May-27 03:30N 54°43' E 018°53'918.3
2018-May-27 03:00N 54°50' E 018°43'918.1
2018-May-27 02:30N 54°57' E 018°34'917.7
2018-May-27 02:00N 55°02' E 018°21'6517.5
2018-May-26 22:18N 55°38' E 016°46'517.9
2018-May-26 22:00N 55°41' E 016°38'917.9
2018-May-26 21:30N 55°45' E 016°24'917.9
2018-May-26 21:00N 55°50' E 016°11'917.8
2018-May-26 20:30N 55°55' E 015°58'917.7
2018-May-26 20:00N 55°60' E 015°44'816.0
2018-May-26 19:30N 56°05' E 015°34'5 9.3
2018-May-26 18:58N 56°10' E 015°38'0 0.0
2018-May-26 18:28N 56°10' E 015°38'0 0.0
2018-May-26 17:58N 56°10' E 015°38'0 0.0
2018-May-26 17:30N 56°10' E 015°38'4 8.9
2018-May-26 17:00N 56°06' E 015°34'815.4
2018-May-26 16:30N 56°00' E 015°44'817.0
2018-May-26 16:00N 55°56' E 015°57'917.0
2018-May-26 15:30N 55°51' E 016°09'816.9
2018-May-26 15:01N 55°46' E 016°22'816.7
2018-May-26 14:30N 55°42' E 016°34'1016.9
2018-May-26 13:56N 55°36' E 016°48'5616.9
2018-May-26 10:39N 55°06' E 018°10'517.2
2018-May-26 10:23N 55°04' E 018°17'617.4
2018-May-26 10:00N 55°00' E 018°27'917.3
2018-May-26 09:28N 54°54' E 018°39'817.1
2018-May-26 09:00N 54°48' E 018°48'917.3
2018-May-26 08:30N 54°42' E 018°58'917.1
2018-May-26 08:00N 54°34' E 018°52'815.5
2018-May-26 07:30N 54°32' E 018°39'4 8.8
2018-May-26 07:00N 54°32' E 018°32'1 1.9
2018-May-26 06:30N 54°33' E 018°30'0 0.0
2018-May-26 05:30N 54°33' E 018°30'1 1.7
2018-May-26 05:00N 54°32' E 018°32'5 9.0
2018-May-26 04:30N 54°32' E 018°39'713.5
2018-May-26 04:00N 54°34' E 018°51'714.6
2018-May-26 03:30N 54°41' E 018°55'714.8
2018-May-26 03:00N 54°47' E 018°48'715.1
2018-May-26 02:30N 54°53' E 018°40'815.3
2018-May-26 02:00N 54°59' E 018°31'815.3
2018-May-26 01:30N 55°03' E 018°20'815.2
2018-May-26 01:00N 55°07' E 018°09'815.2
2018-May-26 00:30N 55°11' E 017°58'815.3
2018-May-26 00:00N 55°15' E 017°46'815.2
2018-May-25 23:30N 55°19' E 017°35'1214.9
2018-May-25 22:40N 55°26' E 017°17'214.7
2018-May-25 22:30N 55°27' E 017°13'714.8
2018-May-25 22:00N 55°31' E 017°02'714.9
2018-May-25 21:30N 55°35' E 016°51'815.1
2018-May-25 21:00N 55°40' E 016°40'815.2
2018-May-25 20:31N 55°44' E 016°29'815.5
2018-May-25 20:00N 55°48' E 016°17'815.6
2018-May-25 19:30N 55°52' E 016°05'815.7
2018-May-25 19:00N 55°56' E 015°54'815.9
2018-May-25 18:30N 56°01' E 015°42'613.0
2018-May-25 18:01N 56°06' E 015°34'5 8.8
2018-May-25 17:28N 56°10' E 015°38'0 0.0
2018-May-25 16:58N 56°10' E 015°38'0 0.0
2018-May-25 16:28N 56°10' E 015°38'0 0.0
2018-May-25 15:58N 56°10' E 015°38'0 0.0
2018-May-25 15:28N 56°10' E 015°38'0 0.0
2018-May-25 14:58N 56°10' E 015°38'0 0.0
2018-May-25 14:28N 56°10' E 015°38'0 0.0
2018-May-25 13:58N 56°10' E 015°38'0 0.0
2018-May-25 13:28N 56°10' E 015°38'0 0.0
2018-May-25 12:58N 56°10' E 015°38'0 0.0
2018-May-25 12:28N 56°10' E 015°38'0 0.0
2018-May-25 11:58N 56°10' E 015°38'0 0.0
2018-May-25 11:28N 56°10' E 015°38'0 0.0
2018-May-25 10:58N 56°10' E 015°38'0 0.0
2018-May-25 10:28N 56°10' E 015°38'0 0.0
2018-May-25 09:58N 56°10' E 015°38'0 0.0
2018-May-25 09:28N 56°10' E 015°38'0 0.0
2018-May-25 08:58N 56°10' E 015°38'0 0.0
2018-May-25 08:28N 56°10' E 015°38'0 0.0
2018-May-25 07:58N 56°10' E 015°38'0 0.0
2018-May-25 07:28N 56°10' E 015°38'0 0.0
2018-May-25 06:58N 56°10' E 015°38'4 9.9
2018-May-25 06:30N 56°06' E 015°34'612.5
2018-May-25 06:00N 56°01' E 015°42'714.3
2018-May-25 05:31N 55°57' E 015°52'714.6
2018-May-25 05:01N 55°53' E 016°02'714.7
2018-May-25 04:30N 55°49' E 016°13'714.7
2018-May-25 04:01N 55°45' E 016°25'714.7
2018-May-25 03:31N 55°41' E 016°36'714.5
2018-May-25 03:00N 55°37' E 016°46'714.1
2018-May-25 02:31N 55°33' E 016°57'714.2
2018-May-25 02:00N 55°29' E 017°07'714.5
2018-May-25 01:30N 55°25' E 017°18'714.6
2018-May-25 01:01N 55°21' E 017°29'714.5
2018-May-25 00:31N 55°17' E 017°39'714.6
2018-May-25 00:01N 55°13' E 017°50'714.9
2018-May-24 23:31N 55°09' E 018°01'714.8
2018-May-24 23:01N 55°05' E 018°12'714.7
2018-May-24 22:31N 55°01' E 018°23'714.6
2018-May-24 22:00N 54°57' E 018°33'714.5
2018-May-24 21:30N 54°52' E 018°42'714.5
2018-May-24 21:00N 54°46' E 018°50'714.4
2018-May-24 20:31N 54°41' E 018°58'714.4
2018-May-24 20:00N 54°34' E 018°52'713.9
2018-May-24 19:30N 54°32' E 018°41'611.2
2018-May-24 19:00N 54°32' E 018°31'1 1.5
2018-May-24 18:29N 54°33' E 018°30'0 0.0
2018-May-24 17:59N 54°33' E 018°30'0 0.0
2018-May-24 17:30N 54°33' E 018°30'2 3.1
2018-May-24 17:00N 54°32' E 018°33'713.3
2018-May-24 16:30N 54°32' E 018°44'815.6
2018-May-24 16:00N 54°38' E 018°54'714.9
2018-May-24 15:30N 54°45' E 018°50'917.7
2018-May-24 15:00N 54°52' E 018°40'917.3
2018-May-24 14:30N 54°58' E 018°30'917.3
2018-May-24 14:00N 55°03' E 018°18'917.4
2018-May-24 13:30N 55°08' E 018°05'7717.2
2018-May-24 09:00N 55°50' E 016°10'917.2
2018-May-24 08:30N 55°55' E 015°58'816.4
2018-May-24 08:00N 55°59' E 015°46'816.1
2018-May-24 07:30N 56°04' E 015°34'612.1
2018-May-24 07:00N 56°10' E 015°38'0 0.3
2018-May-24 06:28N 56°10' E 015°38'0 0.0
2018-May-24 05:58N 56°10' E 015°38'0 0.0
2018-May-24 05:30N 56°10' E 015°38'5 9.1
2018-May-24 05:01N 56°06' E 015°34'815.4
2018-May-24 04:31N 56°00' E 015°44'917.2
2018-May-24 04:00N 55°57' E 015°58'917.1
2018-May-24 03:30N 55°52' E 016°10'917.4
2018-May-24 03:01N 55°46' E 016°22'917.2
2018-May-24 02:31N 55°41' E 016°35'917.2
2018-May-24 02:01N 55°37' E 016°48'916.9
2018-May-24 01:30N 55°32' E 017°00'816.9
2018-May-24 01:01N 55°27' E 017°13'817.0
2018-May-24 00:31N 55°23' E 017°25'916.8
2018-May-23 23:59N 55°18' E 017°38'817.0
2018-May-23 23:30N 55°14' E 017°50'1317.3
2018-May-23 22:47N 55°07' E 018°08'517.4
2018-May-23 22:28N 55°04' E 018°16'817.4
2018-May-23 22:00N 54°59' E 018°28'917.4
2018-May-23 21:31N 54°53' E 018°39'917.7
2018-May-23 21:01N 54°47' E 018°49'917.1
2018-May-23 20:30N 54°39' E 018°57'917.5
2018-May-23 20:01N 54°32' E 018°49'815.5
2018-May-23 19:30N 54°32' E 018°35'3 5.8
2018-May-23 18:59N 54°33' E 018°30'0 0.0
2018-May-23 18:29N 54°33' E 018°30'0 0.0
2018-May-23 17:59N 54°33' E 018°30'0 0.0
2018-May-23 17:30N 54°33' E 018°30'2 3.4
2018-May-23 17:00N 54°32' E 018°33'612.5
2018-May-23 16:30N 54°32' E 018°44'815.5
2018-May-23 16:00N 54°37' E 018°54'815.0
2018-May-23 15:30N 54°45' E 018°51'817.2
2018-May-23 15:00N 54°51' E 018°42'917.1
2018-May-23 14:30N 54°57' E 018°31'917.1
2018-May-23 14:00N 55°03' E 018°19'917.2
2018-May-23 13:30N 55°07' E 018°07'917.1
2018-May-23 13:00N 55°12' E 017°54'2217.3
2018-May-23 11:43N 55°24' E 017°21'416.7
2018-May-23 11:27N 55°27' E 017°15'816.9
2018-May-23 10:58N 55°31' E 017°03'816.6
2018-May-23 10:28N 55°35' E 016°51'817.3
2018-May-23 10:00N 55°40' E 016°38'817.2
2018-May-23 09:30N 55°44' E 016°26'917.5
2018-May-23 09:00N 55°49' E 016°12'816.9
2018-May-23 08:30N 55°54' E 016°01'816.9
2018-May-23 08:00N 55°59' E 015°48'816.8
2018-May-23 07:30N 56°03' E 015°35'613.0
2018-May-23 07:01N 56°10' E 015°37'0 0.8
2018-May-23 06:29N 56°10' E 015°38'0 0.0
2018-May-23 05:59N 56°10' E 015°38'0 0.0
2018-May-23 05:31N 56°10' E 015°38'5 9.4
2018-May-23 05:00N 56°06' E 015°34'816.2
2018-May-23 04:30N 56°00' E 015°45'917.6
2018-May-23 04:00N 55°56' E 015°59'917.6
2018-May-23 03:30N 55°52' E 016°12'816.9
2018-May-23 03:00N 55°47' E 016°24'816.8
2018-May-23 02:30N 55°42' E 016°36'917.2
2018-May-23 02:00N 55°36' E 016°48'917.2
2018-May-23 01:30N 55°32' E 017°01'2517.5
2018-May-23 00:05N 55°18' E 017°38'217.7
2018-May-22 23:59N 55°17' E 017°40'1117.6
2018-May-22 23:23N 55°11' E 017°56'1617.6
2018-May-22 22:30N 55°03' E 018°19'917.6
2018-May-22 22:00N 54°58' E 018°32'817.2
2018-May-22 21:30N 54°52' E 018°42'917.3
2018-May-22 21:00N 54°45' E 018°52'815.6
2018-May-22 20:30N 54°38' E 018°56'816.4
2018-May-22 20:00N 54°32' E 018°46'714.6
2018-May-22 19:30N 54°32' E 018°34'2 3.8
2018-May-22 18:59N 54°33' E 018°30'0 0.0
2018-May-22 18:29N 54°33' E 018°30'0 0.0
2018-May-22 17:59N 54°33' E 018°30'0 0.0
2018-May-22 17:30N 54°33' E 018°30'2 3.2
2018-May-22 17:00N 54°32' E 018°33'612.8
2018-May-22 16:30N 54°32' E 018°44'815.7
2018-May-22 16:01N 54°37' E 018°54'815.0
2018-May-22 15:30N 54°45' E 018°51'816.8
2018-May-22 15:01N 54°51' E 018°41'816.6
2018-May-22 14:30N 54°57' E 018°32'916.8
2018-May-22 13:59N 55°02' E 018°19'816.6
2018-May-22 13:29N 55°07' E 018°07'2216.8
2018-May-22 12:11N 55°19' E 017°36'317.0
2018-May-22 12:00N 55°21' E 017°31'816.9
2018-May-22 11:31N 55°25' E 017°18'916.9
2018-May-22 11:00N 55°30' E 017°06'816.9
2018-May-22 10:31N 55°34' E 016°53'917.1
2018-May-22 10:00N 55°39' E 016°41'917.3
2018-May-22 09:30N 55°44' E 016°28'917.3
2018-May-22 09:01N 55°49' E 016°16'917.0
2018-May-22 08:31N 55°54' E 016°03'816.8
2018-May-22 08:01N 55°58' E 015°50'816.1
2018-May-22 07:30N 56°02' E 015°38'612.5
2018-May-22 07:01N 56°09' E 015°36'2 3.2
2018-May-22 06:30N 56°10' E 015°38'0 0.0
2018-May-22 06:00N 56°10' E 015°38'0 0.0
2018-May-22 05:30N 56°10' E 015°38'0 0.0
2018-May-22 05:00N 56°10' E 015°38'5 9.1
2018-May-22 04:30N 56°06' E 015°34'714.1
2018-May-22 04:00N 56°01' E 015°43'815.8
2018-May-22 03:30N 55°57' E 015°55'815.8
2018-May-22 03:00N 55°53' E 016°07'815.6
2018-May-22 02:30N 55°49' E 016°19'815.5
2018-May-22 02:00N 55°44' E 016°30'815.1
2018-May-22 01:30N 55°40' E 016°41'815.2
2018-May-22 01:00N 55°35' E 016°52'815.2
2018-May-22 00:30N 55°31' E 017°03'815.4
2018-May-22 00:00N 55°27' E 017°15'715.4
2018-May-21 23:30N 55°23' E 017°26'815.6
2018-May-21 23:00N 55°18' E 017°37'815.8
2018-May-21 22:30N 55°14' E 017°49'815.8
2018-May-21 22:00N 55°10' E 018°00'815.9
2018-May-21 21:30N 55°05' E 018°12'816.0
2018-May-21 21:00N 55°01' E 018°23'816.2
2018-May-21 20:31N 54°56' E 018°35'816.0
2018-May-21 20:00N 54°50' E 018°44'816.1
2018-May-21 19:30N 54°44' E 018°53'713.7
2018-May-21 19:00N 54°37' E 018°55'714.3
2018-May-21 18:30N 54°31' E 018°48'713.9
2018-May-21 18:00N 54°32' E 018°36'3 6.4
2018-May-21 17:30N 54°33' E 018°30'0 0.0
2018-May-21 17:00N 54°33' E 018°30'0 0.0
2018-May-21 16:30N 54°33' E 018°30'0 0.0
2018-May-21 16:00N 54°33' E 018°30'0 0.0
2018-May-21 15:30N 54°33' E 018°30'0 0.0
2018-May-21 15:00N 54°33' E 018°30'0 0.0
2018-May-21 14:30N 54°33' E 018°30'0 0.0
2018-May-21 14:00N 54°33' E 018°30'0 0.0
2018-May-21 13:30N 54°33' E 018°30'0 0.0
2018-May-21 13:00N 54°33' E 018°30'0 0.0
2018-May-21 12:30N 54°33' E 018°30'0 0.0
2018-May-21 12:00N 54°33' E 018°30'0 0.0
2018-May-21 11:30N 54°33' E 018°30'0 0.0
2018-May-21 11:00N 54°33' E 018°30'0 0.0
2018-May-21 10:30N 54°33' E 018°30'0 0.0
2018-May-21 09:30N 54°33' E 018°30'0 0.0
2018-May-21 08:59N 54°33' E 018°30'0 0.0
2018-May-21 08:30N 54°33' E 018°30'0 0.0
2018-May-21 08:00N 54°33' E 018°30'0 0.0
2018-May-21 07:30N 54°33' E 018°30'0 0.0
2018-May-21 07:00N 54°33' E 018°30'2 3.4
2018-May-21 06:30N 54°32' E 018°33'612.2
2018-May-21 06:01N 54°32' E 018°44'713.4
2018-May-21 05:31N 54°36' E 018°53'713.2
2018-May-21 05:00N 54°43' E 018°54'714.8
2018-May-21 04:30N 54°49' E 018°46'714.8
2018-May-21 04:00N 54°54' E 018°38'714.6
2018-May-21 03:30N 54°59' E 018°28'714.8
2018-May-21 03:00N 55°03' E 018°17'714.7
2018-May-21 02:30N 55°07' E 018°07'715.0
2018-May-21 02:00N 55°12' E 017°56'815.1
2018-May-21 01:30N 55°16' E 017°44'815.0
2018-May-21 00:57N 55°20' E 017°33'714.6
2018-May-21 00:29N 55°24' E 017°23'814.4
2018-May-20 23:58N 55°28' E 017°12'714.5
2018-May-20 23:30N 55°32' E 017°02'714.6
2018-May-20 23:01N 55°36' E 016°51'714.8
2018-May-20 22:30N 55°40' E 016°40'715.0
2018-May-20 22:01N 55°44' E 016°29'815.1
2018-May-20 21:31N 55°48' E 016°18'815.2
2018-May-20 21:00N 55°52' E 016°06'815.1
2018-May-20 20:30N 55°56' E 015°55'815.5
2018-May-20 20:01N 56°00' E 015°43'714.5
2018-May-20 19:30N 56°05' E 015°34'5 9.7
2018-May-20 19:00N 56°10' E 015°38'0 0.2
2018-May-20 18:30N 56°10' E 015°38'0 0.0
2018-May-20 18:00N 56°10' E 015°38'0 0.0
2018-May-20 17:30N 56°10' E 015°38'5 9.1
2018-May-20 17:00N 56°06' E 015°34'815.4
2018-May-20 16:30N 56°00' E 015°44'816.9
2018-May-20 16:00N 55°56' E 015°57'816.9
2018-May-20 15:30N 55°52' E 016°10'816.8
2018-May-20 15:00N 55°47' E 016°23'816.8
2018-May-20 14:30N 55°42' E 016°34'816.5
2018-May-20 14:00N 55°37' E 016°46'816.3
2018-May-20 13:30N 55°33' E 016°58'816.3
2018-May-20 13:00N 55°28' E 017°10'816.9
2018-May-20 12:30N 55°24' E 017°22'917.4
2018-May-20 12:00N 55°19' E 017°35'917.1
2018-May-20 11:30N 55°14' E 017°48'917.2
2018-May-20 11:00N 55°09' E 018°00'917.3
2018-May-20 10:30N 55°05' E 018°13'917.3
2018-May-20 10:00N 54°60' E 018°26'917.1
2018-May-20 09:30N 54°55' E 018°37'917.4
2018-May-20 09:00N 54°48' E 018°47'917.2
2018-May-20 08:30N 54°42' E 018°57'815.7
2018-May-20 08:00N 54°34' E 018°52'815.2
2018-May-20 07:30N 54°32' E 018°40'510.3
2018-May-20 07:00N 54°33' E 018°31'0 0.8
2018-May-20 06:29N 54°33' E 018°30'0 0.0
2018-May-20 05:59N 54°33' E 018°30'0 0.0
2018-May-20 05:31N 54°33' E 018°30'2 3.0
2018-May-20 05:01N 54°32' E 018°33'713.3
2018-May-20 04:30N 54°32' E 018°44'816.4
2018-May-20 04:00N 54°38' E 018°55'815.8
2018-May-20 03:30N 54°46' E 018°50'917.6
2018-May-20 03:00N 54°52' E 018°40'817.5
2018-May-20 02:31N 54°58' E 018°30'917.7
2018-May-20 02:00N 55°03' E 018°17'917.9
2018-May-20 01:30N 55°08' E 018°04'917.9
2018-May-20 01:00N 55°13' E 017°51'918.1
2018-May-20 00:29N 55°18' E 017°38'918.0
2018-May-20 00:00N 55°23' E 017°25'917.9
2018-May-19 23:30N 55°28' E 017°12'918.0
2018-May-19 23:00N 55°33' E 016°58'918.0
2018-May-19 22:30N 55°38' E 016°45'918.3
2018-May-19 22:00N 55°43' E 016°32'918.2
2018-May-19 21:30N 55°48' E 016°18'918.0
2018-May-19 21:00N 55°53' E 016°05'917.7
2018-May-19 20:30N 55°58' E 015°51'917.8
2018-May-19 20:00N 56°02' E 015°38'612.6
2018-May-19 19:31N 56°09' E 015°36'1 2.8
2018-May-19 18:59N 56°10' E 015°38'0 0.0
2018-May-19 18:29N 56°10' E 015°38'0 0.0
2018-May-19 17:59N 56°10' E 015°38'0 0.0
2018-May-19 17:31N 56°10' E 015°38'4 8.7
2018-May-19 17:01N 56°06' E 015°34'714.5
2018-May-19 16:30N 56°01' E 015°43'816.3
2018-May-19 16:00N 55°56' E 015°55'816.5
2018-May-19 15:30N 55°52' E 016°08'816.3
2018-May-19 15:00N 55°47' E 016°20'816.2
2018-May-19 14:30N 55°43' E 016°32'816.0
2018-May-19 14:00N 55°38' E 016°44'816.2
2018-May-19 13:31N 55°34' E 016°56'816.0
2018-May-19 13:00N 55°29' E 017°07'816.4
2018-May-19 12:30N 55°25' E 017°19'3717.1
2018-May-19 10:22N 55°05' E 018°13'717.6
2018-May-19 09:59N 55°01' E 018°23'917.7
2018-May-19 09:30N 54°56' E 018°35'917.5
2018-May-19 09:00N 54°49' E 018°45'917.5
2018-May-19 08:29N 54°43' E 018°55'815.5
2018-May-19 08:00N 54°35' E 018°54'714.6
2018-May-19 07:30N 54°32' E 018°42'612.7
2018-May-19 07:00N 54°32' E 018°32'1 1.9
2018-May-19 06:30N 54°33' E 018°30'0 0.0
2018-May-19 06:00N 54°33' E 018°30'0 0.0
2018-May-19 05:29N 54°33' E 018°30'1 3.1
2018-May-19 05:00N 54°32' E 018°33'612.3
2018-May-19 04:30N 54°32' E 018°43'713.9
2018-May-19 04:00N 54°36' E 018°53'713.7
2018-May-19 03:30N 54°43' E 018°54'714.8
2018-May-19 03:00N 54°49' E 018°46'815.2
2018-May-19 02:30N 54°55' E 018°38'815.0
2018-May-19 02:00N 54°60' E 018°28'815.3
2018-May-19 01:29N 55°04' E 018°17'815.3
2018-May-19 01:00N 55°08' E 018°06'815.0
2018-May-19 00:28N 55°12' E 017°54'715.1
2018-May-18 23:59N 55°16' E 017°43'1015.2
2018-May-18 23:19N 55°22' E 017°28'515.2
2018-May-18 23:00N 55°24' E 017°21'915.0
2018-May-18 22:26N 55°29' E 017°09'615.0
2018-May-18 22:00N 55°32' E 016°59'1115.0
2018-May-18 21:18N 55°38' E 016°43'415.3
2018-May-18 21:00N 55°41' E 016°37'815.7
2018-May-18 20:30N 55°45' E 016°25'815.2
2018-May-18 20:00N 55°49' E 016°14'714.9
2018-May-18 19:30N 55°53' E 016°03'815.1
2018-May-18 19:00N 55°57' E 015°51'714.8
2018-May-18 18:30N 56°01' E 015°40'611.3
2018-May-18 18:00N 56°06' E 015°34'4 8.7
2018-May-18 17:30N 56°10' E 015°38'0 0.0
2018-May-18 17:00N 56°10' E 015°38'0 0.0
2018-May-18 16:29N 56°10' E 015°38'0 0.0
2018-May-18 16:00N 56°10' E 015°38'0 0.0
2018-May-18 15:30N 56°10' E 015°38'0 0.0
2018-May-18 14:59N 56°10' E 015°38'0 0.0
2018-May-18 14:30N 56°10' E 015°38'0 0.0
2018-May-18 14:00N 56°10' E 015°38'0 0.0
2018-May-18 13:30N 56°10' E 015°38'0 0.0
2018-May-18 13:00N 56°10' E 015°38'0 0.0
2018-May-18 12:30N 56°10' E 015°38'0 0.0
2018-May-18 12:00N 56°10' E 015°38'0 0.0
2018-May-18 11:30N 56°10' E 015°38'0 0.0
2018-May-18 11:00N 56°10' E 015°38'0 0.0
2018-May-18 10:30N 56°10' E 015°38'0 0.0
2018-May-18 10:00N 56°10' E 015°38'0 0.0
2018-May-18 09:29N 56°10' E 015°38'0 0.0
2018-May-18 09:00N 56°10' E 015°38'0 0.0
2018-May-18 08:29N 56°10' E 015°38'0 0.0
2018-May-18 07:59N 56°10' E 015°38'0 0.0
2018-May-18 07:29N 56°10' E 015°38'0 0.0
2018-May-18 07:00N 56°10' E 015°38'4 7.0
2018-May-18 06:30N 56°07' E 015°35'510.3
2018-May-18 06:00N 56°02' E 015°39'713.9
2018-May-18 05:31N 55°58' E 015°49'815.0
2018-May-18 05:01N 55°54' E 016°01'815.9
2018-May-18 04:30N 55°50' E 016°13'815.6
2018-May-18 04:00N 55°46' E 016°24'815.5
2018-May-18 03:30N 55°41' E 016°35'714.8
2018-May-18 03:01N 55°37' E 016°46'1214.5
2018-May-18 02:12N 55°31' E 017°04'414.3
2018-May-18 01:57N 55°29' E 017°09'1814.8
2018-May-18 00:43N 55°19' E 017°36'615.0
2018-May-18 00:18N 55°15' E 017°45'615.1
2018-May-17 23:53N 55°11' E 017°54'1614.9
2018-May-17 22:51N 55°03' E 018°17'514.9
2018-May-17 22:30N 55°01' E 018°25'714.7
2018-May-17 22:00N 54°56' E 018°35'714.9
2018-May-17 21:30N 54°51' E 018°43'815.3
2018-May-17 21:00N 54°45' E 018°52'714.3
2018-May-17 20:31N 54°38' E 018°56'714.7
2018-May-17 20:01N 54°32' E 018°49'714.9
2018-May-17 19:30N 54°32' E 018°36'  
Track history (hours):
 
Tides and Currents Weather Stations Pressure Air Temp Water Temp Dewpoint Dewpoint Depression Visibility Wind Speed Wind Dir Waves Ship Positions

Stena Germanica

Last reported at 2018-May-27 19:30 UTC. Time now 2018-May-27 19:47 UTC.
Position N 56°03' E 015°35'.

Length 176 m; draft 6.4 m.

Type: Passenger vessel. MMSI: 265292000.

Date/timePositionNaut miles runAvg speedWind from/ knotsBaromVisibWave heightAir tempDewpointWater temp
2018-May-27 19:30N 56°03' E 015°35'612.3
2018-May-27 19:00N 56°09' E 015°37'1 1.1
2018-May-27 18:30N 56°10' E 015°38'0 0.0
2018-May-27 18:00N 56°10' E 015°38'0 0.0
2018-May-27 17:30N 56°10' E 015°38'4 8.1
2018-May-27 17:00N 56°06' E 015°35'714.9
2018-May-27 16:30N 56°01' E 015°43'917.1
2018-May-27 16:00N 55°55' E 015°55'917.1
2018-May-27 15:30N 55°51' E 016°08'917.1
2018-May-27 15:00N 55°46' E 016°21'816.9
2018-May-27 14:30N 55°41' E 016°33'916.6
2018-May-27 13:57N 55°36' E 016°47'716.5
2018-May-27 13:30N 55°32' E 016°58'5517.2
2018-May-27 10:16N 55°02' E 018°20'517.7
2018-May-27 10:00N 54°60' E 018°27'917.5
2018-May-27 09:30N 54°54' E 018°38'917.6
2018-May-27 09:00N 54°47' E 018°49'917.5
2018-May-27 08:30N 54°41' E 018°58'917.3
2018-May-27 08:00N 54°33' E 018°50'815.3
2018-May-27 07:29N 54°32' E 018°36'4 7.3
2018-May-27 06:59N 54°33' E 018°30'0 0.0
2018-May-27 06:28N 54°33' E 018°30'0 0.0
2018-May-27 05:58N 54°33' E 018°30'0 0.0
2018-May-27 05:28N 54°33' E 018°30'1 2.6
2018-May-27 05:00N 54°32' E 018°32'5 9.5
2018-May-27 04:30N 54°32' E 018°40'815.3
2018-May-27 04:00N 54°35' E 018°52'816.0
2018-May-27 03:30N 54°43' E 018°53'918.3
2018-May-27 03:00N 54°50' E 018°43'918.1
2018-May-27 02:30N 54°57' E 018°34'917.7
2018-May-27 02:00N 55°02' E 018°21'6517.5
2018-May-26 22:18N 55°38' E 016°46'517.9
2018-May-26 22:00N 55°41' E 016°38'917.9
2018-May-26 21:30N 55°45' E 016°24'917.9
2018-May-26 21:00N 55°50' E 016°11'917.8
2018-May-26 20:30N 55°55' E 015°58'917.7
2018-May-26 20:00N 55°60' E 015°44'816.0
2018-May-26 19:30N 56°05' E 015°34'5 9.3
2018-May-26 18:58N 56°10' E 015°38'0 0.0
2018-May-26 18:28N 56°10' E 015°38'0 0.0
2018-May-26 17:58N 56°10' E 015°38'0 0.0
2018-May-26 17:30N 56°10' E 015°38'4 8.9
2018-May-26 17:00N 56°06' E 015°34'815.4
2018-May-26 16:30N 56°00' E 015°44'817.0
2018-May-26 16:00N 55°56' E 015°57'917.0
2018-May-26 15:30N 55°51' E 016°09'816.9
2018-May-26 15:01N 55°46' E 016°22'816.7
2018-May-26 14:30N 55°42' E 016°34'1016.9
2018-May-26 13:56N 55°36' E 016°48'5616.9
2018-May-26 10:39N 55°06' E 018°10'517.2
2018-May-26 10:23N 55°04' E 018°17'617.4
2018-May-26 10:00N 55°00' E 018°27'917.3
2018-May-26 09:28N 54°54' E 018°39'817.1
2018-May-26 09:00N 54°48' E 018°48'917.3
2018-May-26 08:30N 54°42' E 018°58'917.1
2018-May-26 08:00N 54°34' E 018°52'815.5
2018-May-26 07:30N 54°32' E 018°39'4 8.8
2018-May-26 07:00N 54°32' E 018°32'1 1.9
2018-May-26 06:30N 54°33' E 018°30'0 0.0
2018-May-26 05:30N 54°33' E 018°30'1 1.7
2018-May-26 05:00N 54°32' E 018°32'5 9.0
2018-May-26 04:30N 54°32' E 018°39'713.5
2018-May-26 04:00N 54°34' E 018°51'714.6
2018-May-26 03:30N 54°41' E 018°55'714.8
2018-May-26 03:00N 54°47' E 018°48'715.1
2018-May-26 02:30N 54°53' E 018°40'815.3
2018-May-26 02:00N 54°59' E 018°31'815.3
2018-May-26 01:30N 55°03' E 018°20'815.2
2018-May-26 01:00N 55°07' E 018°09'815.2
2018-May-26 00:30N 55°11' E 017°58'815.3
2018-May-26 00:00N 55°15' E 017°46'815.2
2018-May-25 23:30N 55°19' E 017°35'1214.9
2018-May-25 22:40N 55°26' E 017°17'214.7
2018-May-25 22:30N 55°27' E 017°13'714.8
2018-May-25 22:00N 55°31' E 017°02'714.9
2018-May-25 21:30N 55°35' E 016°51'815.1
2018-May-25 21:00N 55°40' E 016°40'815.2
2018-May-25 20:31N 55°44' E 016°29'815.5
2018-May-25 20:00N 55°48' E 016°17'815.6
2018-May-25 19:30N 55°52' E 016°05'815.7
2018-May-25 19:00N 55°56' E 015°54'815.9
2018-May-25 18:30N 56°01' E 015°42'613.0
2018-May-25 18:01N 56°06' E 015°34'5 8.8
2018-May-25 17:28N 56°10' E 015°38'0 0.0
2018-May-25 16:58N 56°10' E 015°38'0 0.0
2018-May-25 16:28N 56°10' E 015°38'0 0.0
2018-May-25 15:58N 56°10' E 015°38'0 0.0
2018-May-25 15:28N 56°10' E 015°38'0 0.0
2018-May-25 14:58N 56°10' E 015°38'0 0.0
2018-May-25 14:28N 56°10' E 015°38'0 0.0
2018-May-25 13:58N 56°10' E 015°38'0 0.0
2018-May-25 13:28N 56°10' E 015°38'0 0.0
2018-May-25 12:58N 56°10' E 015°38'0 0.0
2018-May-25 12:28N 56°10' E 015°38'0 0.0
2018-May-25 11:58N 56°10' E 015°38'0 0.0
2018-May-25 11:28N 56°10' E 015°38'0 0.0
2018-May-25 10:58N 56°10' E 015°38'0 0.0
2018-May-25 10:28N 56°10' E 015°38'0 0.0
2018-May-25 09:58N 56°10' E 015°38'0 0.0
2018-May-25 09:28N 56°10' E 015°38'0 0.0
2018-May-25 08:58N 56°10' E 015°38'0 0.0
2018-May-25 08:28N 56°10' E 015°38'0 0.0
2018-May-25 07:58N 56°10' E 015°38'0 0.0
2018-May-25 07:28N 56°10' E 015°38'0 0.0
2018-May-25 06:58N 56°10' E 015°38'4 9.9
2018-May-25 06:30N 56°06' E 015°34'612.5
2018-May-25 06:00N 56°01' E 015°42'714.3
2018-May-25 05:31N 55°57' E 015°52'714.6
2018-May-25 05:01N 55°53' E 016°02'714.7
2018-May-25 04:30N 55°49' E 016°13'714.7
2018-May-25 04:01N 55°45' E 016°25'714.7
2018-May-25 03:31N 55°41' E 016°36'714.5
2018-May-25 03:00N 55°37' E 016°46'714.1
2018-May-25 02:31N 55°33' E 016°57'714.2
2018-May-25 02:00N 55°29' E 017°07'714.5
2018-May-25 01:30N 55°25' E 017°18'714.6
2018-May-25 01:01N 55°21' E 017°29'714.5
2018-May-25 00:31N 55°17' E 017°39'714.6
2018-May-25 00:01N 55°13' E 017°50'714.9
2018-May-24 23:31N 55°09' E 018°01'714.8
2018-May-24 23:01N 55°05' E 018°12'714.7
2018-May-24 22:31N 55°01' E 018°23'714.6
2018-May-24 22:00N 54°57' E 018°33'714.5
2018-May-24 21:30N 54°52' E 018°42'714.5
2018-May-24 21:00N 54°46' E 018°50'714.4
2018-May-24 20:31N 54°41' E 018°58'714.4
2018-May-24 20:00N 54°34' E 018°52'713.9
2018-May-24 19:30N 54°32' E 018°41'611.2
2018-May-24 19:00N 54°32' E 018°31'1 1.5
2018-May-24 18:29N 54°33' E 018°30'0 0.0
2018-May-24 17:59N 54°33' E 018°30'0 0.0
2018-May-24 17:30N 54°33' E 018°30'2 3.1
2018-May-24 17:00N 54°32' E 018°33'713.3
2018-May-24 16:30N 54°32' E 018°44'815.6
2018-May-24 16:00N 54°38' E 018°54'714.9
2018-May-24 15:30N 54°45' E 018°50'917.7
2018-May-24 15:00N 54°52' E 018°40'917.3
2018-May-24 14:30N 54°58' E 018°30'917.3
2018-May-24 14:00N 55°03' E 018°18'917.4
2018-May-24 13:30N 55°08' E 018°05'7717.2
2018-May-24 09:00N 55°50' E 016°10'917.2
2018-May-24 08:30N 55°55' E 015°58'816.4
2018-May-24 08:00N 55°59' E 015°46'816.1
2018-May-24 07:30N 56°04' E 015°34'612.1
2018-May-24 07:00N 56°10' E 015°38'0 0.3
2018-May-24 06:28N 56°10' E 015°38'0 0.0
2018-May-24 05:58N 56°10' E 015°38'0 0.0
2018-May-24 05:30N 56°10' E 015°38'5 9.1
2018-May-24 05:01N 56°06' E 015°34'815.4
2018-May-24 04:31N 56°00' E 015°44'917.2
2018-May-24 04:00N 55°57' E 015°58'917.1
2018-May-24 03:30N 55°52' E 016°10'917.4
2018-May-24 03:01N 55°46' E 016°22'917.2
2018-May-24 02:31N 55°41' E 016°35'917.2
2018-May-24 02:01N 55°37' E 016°48'916.9
2018-May-24 01:30N 55°32' E 017°00'816.9
2018-May-24 01:01N 55°27' E 017°13'817.0
2018-May-24 00:31N 55°23' E 017°25'916.8
2018-May-23 23:59N 55°18' E 017°38'817.0
2018-May-23 23:30N 55°14' E 017°50'1317.3
2018-May-23 22:47N 55°07' E 018°08'517.4
2018-May-23 22:28N 55°04' E 018°16'817.4
2018-May-23 22:00N 54°59' E 018°28'917.4
2018-May-23 21:31N 54°53' E 018°39'917.7
2018-May-23 21:01N 54°47' E 018°49'917.1
2018-May-23 20:30N 54°39' E 018°57'917.5
2018-May-23 20:01N 54°32' E 018°49'815.5
2018-May-23 19:30N 54°32' E 018°35'3 5.8
2018-May-23 18:59N 54°33' E 018°30'0 0.0
2018-May-23 18:29N 54°33' E 018°30'0 0.0
2018-May-23 17:59N 54°33' E 018°30'0 0.0
2018-May-23 17:30N 54°33' E 018°30'2 3.4
2018-May-23 17:00N 54°32' E 018°33'612.5
2018-May-23 16:30N 54°32' E 018°44'815.5
2018-May-23 16:00N 54°37' E 018°54'815.0
2018-May-23 15:30N 54°45' E 018°51'817.2
2018-May-23 15:00N 54°51' E 018°42'917.1
2018-May-23 14:30N 54°57' E 018°31'917.1
2018-May-23 14:00N 55°03' E 018°19'917.2
2018-May-23 13:30N 55°07' E 018°07'917.1
2018-May-23 13:00N 55°12' E 017°54'2217.3
2018-May-23 11:43N 55°24' E 017°21'416.7
2018-May-23 11:27N 55°27' E 017°15'816.9
2018-May-23 10:58N 55°31' E 017°03'816.6
2018-May-23 10:28N 55°35' E 016°51'817.3
2018-May-23 10:00N 55°40' E 016°38'817.2
2018-May-23 09:30N 55°44' E 016°26'917.5
2018-May-23 09:00N 55°49' E 016°12'816.9
2018-May-23 08:30N 55°54' E 016°01'816.9
2018-May-23 08:00N 55°59' E 015°48'816.8
2018-May-23 07:30N 56°03' E 015°35'613.0
2018-May-23 07:01N 56°10' E 015°37'0 0.8
2018-May-23 06:29N 56°10' E 015°38'0 0.0
2018-May-23 05:59N 56°10' E 015°38'0 0.0
2018-May-23 05:31N 56°10' E 015°38'5 9.4
2018-May-23 05:00N 56°06' E 015°34'816.2
2018-May-23 04:30N 56°00' E 015°45'917.6
2018-May-23 04:00N 55°56' E 015°59'917.6
2018-May-23 03:30N 55°52' E 016°12'816.9
2018-May-23 03:00N 55°47' E 016°24'816.8
2018-May-23 02:30N 55°42' E 016°36'917.2
2018-May-23 02:00N 55°36' E 016°48'917.2
2018-May-23 01:30N 55°32' E 017°01'2517.5
2018-May-23 00:05N 55°18' E 017°38'217.7
2018-May-22 23:59N 55°17' E 017°40'1117.6
2018-May-22 23:23N 55°11' E 017°56'1617.6
2018-May-22 22:30N 55°03' E 018°19'917.6
2018-May-22 22:00N 54°58' E 018°32'817.2
2018-May-22 21:30N 54°52' E 018°42'917.3
2018-May-22 21:00N 54°45' E 018°52'815.6
2018-May-22 20:30N 54°38' E 018°56'816.4
2018-May-22 20:00N 54°32' E 018°46'714.6
2018-May-22 19:30N 54°32' E 018°34'2 3.8
2018-May-22 18:59N 54°33' E 018°30'0 0.0
2018-May-22 18:29N 54°33' E 018°30'0 0.0
2018-May-22 17:59N 54°33' E 018°30'0 0.0
2018-May-22 17:30N 54°33' E 018°30'2 3.2
2018-May-22 17:00N 54°32' E 018°33'612.8
2018-May-22 16:30N 54°32' E 018°44'815.7
2018-May-22 16:01N 54°37' E 018°54'815.0
2018-May-22 15:30N 54°45' E 018°51'816.8
2018-May-22 15:01N 54°51' E 018°41'816.6
2018-May-22 14:30N 54°57' E 018°32'916.8
2018-May-22 13:59N 55°02' E 018°19'816.6
2018-May-22 13:29N 55°07' E 018°07'2216.8
2018-May-22 12:11N 55°19' E 017°36'317.0
2018-May-22 12:00N 55°21' E 017°31'816.9
2018-May-22 11:31N 55°25' E 017°18'916.9
2018-May-22 11:00N 55°30' E 017°06'816.9
2018-May-22 10:31N 55°34' E 016°53'917.1
2018-May-22 10:00N 55°39' E 016°41'917.3
2018-May-22 09:30N 55°44' E 016°28'917.3
2018-May-22 09:01N 55°49' E 016°16'917.0
2018-May-22 08:31N 55°54' E 016°03'816.8
2018-May-22 08:01N 55°58' E 015°50'816.1
2018-May-22 07:30N 56°02' E 015°38'612.5
2018-May-22 07:01N 56°09' E 015°36'2 3.2
2018-May-22 06:30N 56°10' E 015°38'0 0.0
2018-May-22 06:00N 56°10' E 015°38'0 0.0
2018-May-22 05:30N 56°10' E 015°38'0 0.0
2018-May-22 05:00N 56°10' E 015°38'5 9.1
2018-May-22 04:30N 56°06' E 015°34'714.1
2018-May-22 04:00N 56°01' E 015°43'815.8
2018-May-22 03:30N 55°57' E 015°55'815.8
2018-May-22 03:00N 55°53' E 016°07'815.6
2018-May-22 02:30N 55°49' E 016°19'815.5
2018-May-22 02:00N 55°44' E 016°30'815.1
2018-May-22 01:30N 55°40' E 016°41'815.2
2018-May-22 01:00N 55°35' E 016°52'815.2
2018-May-22 00:30N 55°31' E 017°03'815.4
2018-May-22 00:00N 55°27' E 017°15'715.4
2018-May-21 23:30N 55°23' E 017°26'815.6
2018-May-21 23:00N 55°18' E 017°37'815.8
2018-May-21 22:30N 55°14' E 017°49'815.8
2018-May-21 22:00N 55°10' E 018°00'815.9
2018-May-21 21:30N 55°05' E 018°12'816.0
2018-May-21 21:00N 55°01' E 018°23'816.2
2018-May-21 20:31N 54°56' E 018°35'816.0
2018-May-21 20:00N 54°50' E 018°44'816.1
2018-May-21 19:30N 54°44' E 018°53'713.7
2018-May-21 19:00N 54°37' E 018°55'714.3
2018-May-21 18:30N 54°31' E 018°48'713.9
2018-May-21 18:00N 54°32' E 018°36'3 6.4
2018-May-21 17:30N 54°33' E 018°30'0 0.0
2018-May-21 17:00N 54°33' E 018°30'0 0.0
2018-May-21 16:30N 54°33' E 018°30'0 0.0
2018-May-21 16:00N 54°33' E 018°30'0 0.0
2018-May-21 15:30N 54°33' E 018°30'0 0.0
2018-May-21 15:00N 54°33' E 018°30'0 0.0
2018-May-21 14:30N 54°33' E 018°30'0 0.0
2018-May-21 14:00N 54°33' E 018°30'0 0.0
2018-May-21 13:30N 54°33' E 018°30'0 0.0
2018-May-21 13:00N 54°33' E 018°30'0 0.0
2018-May-21 12:30N 54°33' E 018°30'0 0.0
2018-May-21 12:00N 54°33' E 018°30'0 0.0
2018-May-21 11:30N 54°33' E 018°30'0 0.0
2018-May-21 11:00N 54°33' E 018°30'0 0.0
2018-May-21 10:30N 54°33' E 018°30'0 0.0
2018-May-21 09:30N 54°33' E 018°30'0 0.0
2018-May-21 08:59N 54°33' E 018°30'0 0.0
2018-May-21 08:30N 54°33' E 018°30'0 0.0
2018-May-21 08:00N 54°33' E 018°30'0 0.0
2018-May-21 07:30N 54°33' E 018°30'0 0.0
2018-May-21 07:00N 54°33' E 018°30'2 3.4
2018-May-21 06:30N 54°32' E 018°33'612.2
2018-May-21 06:01N 54°32' E 018°44'713.4
2018-May-21 05:31N 54°36' E 018°53'713.2
2018-May-21 05:00N 54°43' E 018°54'714.8
2018-May-21 04:30N 54°49' E 018°46'714.8
2018-May-21 04:00N 54°54' E 018°38'714.6
2018-May-21 03:30N 54°59' E 018°28'714.8
2018-May-21 03:00N 55°03' E 018°17'714.7
2018-May-21 02:30N 55°07' E 018°07'715.0
2018-May-21 02:00N 55°12' E 017°56'815.1
2018-May-21 01:30N 55°16' E 017°44'815.0
2018-May-21 00:57N 55°20' E 017°33'714.6
2018-May-21 00:29N 55°24' E 017°23'814.4
2018-May-20 23:58N 55°28' E 017°12'714.5
2018-May-20 23:30N 55°32' E 017°02'714.6
2018-May-20 23:01N 55°36' E 016°51'714.8
2018-May-20 22:30N 55°40' E 016°40'715.0
2018-May-20 22:01N 55°44' E 016°29'815.1
2018-May-20 21:31N 55°48' E 016°18'815.2
2018-May-20 21:00N 55°52' E 016°06'815.1
2018-May-20 20:30N 55°56' E 015°55'815.5
2018-May-20 20:01N 56°00' E 015°43'714.5
2018-May-20 19:30N 56°05' E 015°34'5 9.7
2018-May-20 19:00N 56°10' E 015°38'0 0.2
2018-May-20 18:30N 56°10' E 015°38'0 0.0
2018-May-20 18:00N 56°10' E 015°38'0 0.0
2018-May-20 17:30N 56°10' E 015°38'5 9.1
2018-May-20 17:00N 56°06' E 015°34'815.4
2018-May-20 16:30N 56°00' E 015°44'816.9
2018-May-20 16:00N 55°56' E 015°57'816.9
2018-May-20 15:30N 55°52' E 016°10'816.8
2018-May-20 15:00N 55°47' E 016°23'816.8
2018-May-20 14:30N 55°42' E 016°34'816.5
2018-May-20 14:00N 55°37' E 016°46'816.3
2018-May-20 13:30N 55°33' E 016°58'816.3
2018-May-20 13:00N 55°28' E 017°10'816.9
2018-May-20 12:30N 55°24' E 017°22'917.4
2018-May-20 12:00N 55°19' E 017°35'917.1
2018-May-20 11:30N 55°14' E 017°48'917.2
2018-May-20 11:00N 55°09' E 018°00'917.3
2018-May-20 10:30N 55°05' E 018°13'917.3
2018-May-20 10:00N 54°60' E 018°26'917.1
2018-May-20 09:30N 54°55' E 018°37'917.4
2018-May-20 09:00N 54°48' E 018°47'917.2
2018-May-20 08:30N 54°42' E 018°57'815.7
2018-May-20 08:00N 54°34' E 018°52'815.2
2018-May-20 07:30N 54°32' E 018°40'510.3
2018-May-20 07:00N 54°33' E 018°31'0 0.8
2018-May-20 06:29N 54°33' E 018°30'0 0.0
2018-May-20 05:59N 54°33' E 018°30'0 0.0
2018-May-20 05:31N 54°33' E 018°30'2 3.0
2018-May-20 05:01N 54°32' E 018°33'713.3
2018-May-20 04:30N 54°32' E 018°44'816.4
2018-May-20 04:00N 54°38' E 018°55'815.8
2018-May-20 03:30N 54°46' E 018°50'917.6
2018-May-20 03:00N 54°52' E 018°40'817.5
2018-May-20 02:31N 54°58' E 018°30'917.7
2018-May-20 02:00N 55°03' E 018°17'917.9
2018-May-20 01:30N 55°08' E 018°04'917.9
2018-May-20 01:00N 55°13' E 017°51'918.1
2018-May-20 00:29N 55°18' E 017°38'918.0
2018-May-20 00:00N 55°23' E 017°25'917.9
2018-May-19 23:30N 55°28' E 017°12'918.0
2018-May-19 23:00N 55°33' E 016°58'918.0
2018-May-19 22:30N 55°38' E 016°45'918.3
2018-May-19 22:00N 55°43' E 016°32'918.2
2018-May-19 21:30N 55°48' E 016°18'918.0
2018-May-19 21:00N 55°53' E 016°05'917.7
2018-May-19 20:30N 55°58' E 015°51'917.8
2018-May-19 20:00N 56°02' E 015°38'612.6
2018-May-19 19:31N 56°09' E 015°36'1 2.8
2018-May-19 18:59N 56°10' E 015°38'0 0.0
2018-May-19 18:29N 56°10' E 015°38'0 0.0
2018-May-19 17:59N 56°10' E 015°38'0 0.0
2018-May-19 17:31N 56°10' E 015°38'4 8.7
2018-May-19 17:01N 56°06' E 015°34'714.5
2018-May-19 16:30N 56°01' E 015°43'816.3
2018-May-19 16:00N 55°56' E 015°55'816.5
2018-May-19 15:30N 55°52' E 016°08'816.3
2018-May-19 15:00N 55°47' E 016°20'816.2
2018-May-19 14:30N 55°43' E 016°32'816.0
2018-May-19 14:00N 55°38' E 016°44'816.2
2018-May-19 13:31N 55°34' E 016°56'816.0
2018-May-19 13:00N 55°29' E 017°07'816.4
2018-May-19 12:30N 55°25' E 017°19'3717.1
2018-May-19 10:22N 55°05' E 018°13'717.6
2018-May-19 09:59N 55°01' E 018°23'917.7
2018-May-19 09:30N 54°56' E 018°35'917.5
2018-May-19 09:00N 54°49' E 018°45'917.5
2018-May-19 08:29N 54°43' E 018°55'815.5
2018-May-19 08:00N 54°35' E 018°54'714.6
2018-May-19 07:30N 54°32' E 018°42'612.7
2018-May-19 07:00N 54°32' E 018°32'1 1.9
2018-May-19 06:30N 54°33' E 018°30'0 0.0
2018-May-19 06:00N 54°33' E 018°30'0 0.0
2018-May-19 05:29N 54°33' E 018°30'1 3.1
2018-May-19 05:00N 54°32' E 018°33'612.3
2018-May-19 04:30N 54°32' E 018°43'713.9
2018-May-19 04:00N 54°36' E 018°53'713.7
2018-May-19 03:30N 54°43' E 018°54'714.8
2018-May-19 03:00N 54°49' E 018°46'815.2
2018-May-19 02:30N 54°55' E 018°38'815.0
2018-May-19 02:00N 54°60' E 018°28'815.3
2018-May-19 01:29N 55°04' E 018°17'815.3
2018-May-19 01:00N 55°08' E 018°06'815.0
2018-May-19 00:28N 55°12' E 017°54'715.1
2018-May-18 23:59N 55°16' E 017°43'1015.2
2018-May-18 23:19N 55°22' E 017°28'515.2
2018-May-18 23:00N 55°24' E 017°21'915.0
2018-May-18 22:26N 55°29' E 017°09'615.0
2018-May-18 22:00N 55°32' E 016°59'1115.0
2018-May-18 21:18N 55°38' E 016°43'415.3
2018-May-18 21:00N 55°41' E 016°37'815.7
2018-May-18 20:30N 55°45' E 016°25'815.2
2018-May-18 20:00N 55°49' E 016°14'714.9
2018-May-18 19:30N 55°53' E 016°03'815.1
2018-May-18 19:00N 55°57' E 015°51'714.8
2018-May-18 18:30N 56°01' E 015°40'611.3
2018-May-18 18:00N 56°06' E 015°34'4 8.7
2018-May-18 17:30N 56°10' E 015°38'0 0.0
2018-May-18 17:00N 56°10' E 015°38'0 0.0
2018-May-18 16:29N 56°10' E 015°38'0 0.0
2018-May-18 16:00N 56°10' E 015°38'0 0.0
2018-May-18 15:30N 56°10' E 015°38'0 0.0
2018-May-18 14:59N 56°10' E 015°38'0 0.0
2018-May-18 14:30N 56°10' E 015°38'0 0.0
2018-May-18 14:00N 56°10' E 015°38'0 0.0
2018-May-18 13:30N 56°10' E 015°38'0 0.0
2018-May-18 13:00N 56°10' E 015°38'0 0.0
2018-May-18 12:30N 56°10' E 015°38'0 0.0
2018-May-18 12:00N 56°10' E 015°38'0 0.0
2018-May-18 11:30N 56°10' E 015°38'0 0.0
2018-May-18 11:00N 56°10' E 015°38'0 0.0
2018-May-18 10:30N 56°10' E 015°38'0 0.0
2018-May-18 10:00N 56°10' E 015°38'0 0.0
2018-May-18 09:29N 56°10' E 015°38'0 0.0
2018-May-18 09:00N 56°10' E 015°38'0 0.0
2018-May-18 08:29N 56°10' E 015°38'0 0.0
2018-May-18 07:59N 56°10' E 015°38'0 0.0
2018-May-18 07:29N 56°10' E 015°38'0 0.0
2018-May-18 07:00N 56°10' E 015°38'4 7.0
2018-May-18 06:30N 56°07' E 015°35'510.3
2018-May-18 06:00N 56°02' E 015°39'713.9
2018-May-18 05:31N 55°58' E 015°49'815.0
2018-May-18 05:01N 55°54' E 016°01'815.9
2018-May-18 04:30N 55°50' E 016°13'815.6
2018-May-18 04:00N 55°46' E 016°24'815.5
2018-May-18 03:30N 55°41' E 016°35'714.8
2018-May-18 03:01N 55°37' E 016°46'1214.5
2018-May-18 02:12N 55°31' E 017°04'414.3
2018-May-18 01:57N 55°29' E 017°09'1814.8
2018-May-18 00:43N 55°19' E 017°36'615.0
2018-May-18 00:18N 55°15' E 017°45'615.1
2018-May-17 23:53N 55°11' E 017°54'1614.9
2018-May-17 22:51N 55°03' E 018°17'514.9
2018-May-17 22:30N 55°01' E 018°25'714.7
2018-May-17 22:00N 54°56' E 018°35'714.9
2018-May-17 21:30N 54°51' E 018°43'815.3
2018-May-17 21:00N 54°45' E 018°52'714.3
2018-May-17 20:31N 54°38' E 018°56'714.7
2018-May-17 20:01N 54°32' E 018°49'714.9
2018-May-17 19:30N 54°32' E 018°36'  

Dump ship's entire track history